sensor_id;sensor_type;location;lat;lon;timestamp;temperature;humidity
14901;DHT22;7542;49.078;9.194;2023-06-26T00:00:31;29.30;45.70
14901;DHT22;7542;49.078;9.194;2023-06-26T00:01:34;29.30;45.60
14901;DHT22;7542;49.078;9.194;2023-06-26T00:02:36;29.30;45.60
14901;DHT22;7542;49.078;9.194;2023-06-26T00:03:38;29.30;45.60
14901;DHT22;7542;49.078;9.194;2023-06-26T00:04:41;29.30;45.60
14901;DHT22;7542;49.078;9.194;2023-06-26T00:05:43;29.30;45.60
14901;DHT22;7542;49.078;9.194;2023-06-26T00:06:45;29.20;45.50
14901;DHT22;7542;49.078;9.194;2023-06-26T00:07:47;29.20;45.40
14901;DHT22;7542;49.078;9.194;2023-06-26T00:08:49;29.20;45.40
14901;DHT22;7542;49.078;9.194;2023-06-26T00:09:51;29.20;45.30
14901;DHT22;7542;49.078;9.194;2023-06-26T00:10:54;29.20;45.30
14901;DHT22;7542;49.078;9.194;2023-06-26T00:11:55;29.30;45.30
14901;DHT22;7542;49.078;9.194;2023-06-26T00:12:57;29.20;45.30
14901;DHT22;7542;49.078;9.194;2023-06-26T00:14:00;29.20;45.30
14901;DHT22;7542;49.078;9.194;2023-06-26T00:15:03;29.20;45.30
14901;DHT22;7542;49.078;9.194;2023-06-26T00:16:05;29.20;45.30
14901;DHT22;7542;49.078;9.194;2023-06-26T00:17:07;29.10;45.30
14901;DHT22;7542;49.078;9.194;2023-06-26T00:18:09;29.20;45.30
14901;DHT22;7542;49.078;9.194;2023-06-26T00:19:10;29.20;45.30
14901;DHT22;7542;49.078;9.194;2023-06-26T00:20:12;29.10;45.30
14901;DHT22;7542;49.078;9.194;2023-06-26T00:21:18;29.10;45.40
14901;DHT22;7542;49.078;9.194;2023-06-26T00:22:21;29.10;45.50
14901;DHT22;7542;49.078;9.194;2023-06-26T00:23:23;29.10;45.60
14901;DHT22;7542;49.078;9.194;2023-06-26T00:24:25;29.20;45.60
14901;DHT22;7542;49.078;9.194;2023-06-26T00:25:27;29.10;45.80
14901;DHT22;7542;49.078;9.194;2023-06-26T00:26:28;29.00;45.80
14901;DHT22;7542;49.078;9.194;2023-06-26T00:27:30;29.10;46.00
14901;DHT22;7542;49.078;9.194;2023-06-26T00:28:32;29.00;46.00
14901;DHT22;7542;49.078;9.194;2023-06-26T00:29:34;29.00;46.10
14901;DHT22;7542;49.078;9.194;2023-06-26T00:30:36;29.00;46.20
14901;DHT22;7542;49.078;9.194;2023-06-26T00:31:39;29.00;46.20
14901;DHT22;7542;49.078;9.194;2023-06-26T00:32:41;29.00;46.30
14901;DHT22;7542;49.078;9.194;2023-06-26T00:33:43;29.00;46.30
14901;DHT22;7542;49.078;9.194;2023-06-26T00:34:45;29.00;46.30
14901;DHT22;7542;49.078;9.194;2023-06-26T00:35:48;29.00;46.30
14901;DHT22;7542;49.078;9.194;2023-06-26T00:36:50;29.00;46.30
14901;DHT22;7542;49.078;9.194;2023-06-26T00:37:52;29.00;46.30
14901;DHT22;7542;49.078;9.194;2023-06-26T00:38:54;29.00;46.30
14901;DHT22;7542;49.078;9.194;2023-06-26T00:39:56;29.00;46.40
14901;DHT22;7542;49.078;9.194;2023-06-26T00:40:57;29.00;46.30
14901;DHT22;7542;49.078;9.194;2023-06-26T00:41:59;29.00;46.30
14901;DHT22;7542;49.078;9.194;2023-06-26T00:43:01;29.00;46.40
14901;DHT22;7542;49.078;9.194;2023-06-26T00:44:04;29.00;46.40
14901;DHT22;7542;49.078;9.194;2023-06-26T00:45:06;29.00;46.40
14901;DHT22;7542;49.078;9.194;2023-06-26T00:46:10;29.00;46.40
14901;DHT22;7542;49.078;9.194;2023-06-26T00:47:16;28.90;45.90
14901;DHT22;7542;49.078;9.194;2023-06-26T00:48:20;28.90;45.90
14901;DHT22;7542;49.078;9.194;2023-06-26T00:49:21;27.10;45.40
14901;DHT22;7542;49.078;9.194;2023-06-26T00:50:24;29.00;46.40
14901;DHT22;7542;49.078;9.194;2023-06-26T00:51:27;28.90;45.90
14901;DHT22;7542;49.078;9.194;2023-06-26T00:52:31;28.90;45.80
14901;DHT22;7542;49.078;9.194;2023-06-26T00:53:33;28.90;45.80
14901;DHT22;7542;49.078;9.194;2023-06-26T00:54:35;28.90;45.70
14901;DHT22;7542;49.078;9.194;2023-06-26T00:55:37;28.90;45.70
14901;DHT22;7542;49.078;9.194;2023-06-26T00:56:39;28.90;45.80
14901;DHT22;7542;49.078;9.194;2023-06-26T00:57:42;28.90;45.70
14901;DHT22;7542;49.078;9.194;2023-06-26T00:58:44;28.80;45.70
14901;DHT22;7542;49.078;9.194;2023-06-26T00:59:48;28.80;45.80
14901;DHT22;7542;49.078;9.194;2023-06-26T01:00:51;28.80;45.80
14901;DHT22;7542;49.078;9.194;2023-06-26T01:01:53;28.70;45.80
14901;DHT22;7542;49.078;9.194;2023-06-26T01:02:55;28.80;45.70
14901;DHT22;7542;49.078;9.194;2023-06-26T01:04:01;28.80;45.80
14901;DHT22;7542;49.078;9.194;2023-06-26T01:05:04;28.70;45.70
14901;DHT22;7542;49.078;9.194;2023-06-26T01:06:09;28.80;45.60
14901;DHT22;7542;49.078;9.194;2023-06-26T01:07:15;28.70;45.60
14901;DHT22;7542;49.078;9.194;2023-06-26T01:08:20;28.70;45.60
14901;DHT22;7542;49.078;9.194;2023-06-26T01:09:24;28.70;45.60
14901;DHT22;7542;49.078;9.194;2023-06-26T01:10:27;28.70;45.70
14901;DHT22;7542;49.078;9.194;2023-06-26T01:11:31;28.60;45.80
14901;DHT22;7542;49.078;9.194;2023-06-26T01:12:33;28.70;45.90
14901;DHT22;7542;49.078;9.194;2023-06-26T01:13:35;28.60;45.90
14901;DHT22;7542;49.078;9.194;2023-06-26T01:14:38;28.60;46.00
14901;DHT22;7542;49.078;9.194;2023-06-26T01:15:40;28.60;46.00
14901;DHT22;7542;49.078;9.194;2023-06-26T01:16:43;28.60;46.00
14901;DHT22;7542;49.078;9.194;2023-06-26T01:17:50;28.70;46.10
14901;DHT22;7542;49.078;9.194;2023-06-26T01:18:53;28.60;46.10
14901;DHT22;7542;49.078;9.194;2023-06-26T01:20:00;28.60;46.10
14901;DHT22;7542;49.078;9.194;2023-06-26T01:21:07;28.60;46.10
14901;DHT22;7542;49.078;9.194;2023-06-26T01:26:46;28.60;46.20
14901;DHT22;7542;49.078;9.194;2023-06-26T01:27:52;28.60;46.30
14901;DHT22;7542;49.078;9.194;2023-06-26T01:28:58;28.50;46.30
14901;DHT22;7542;49.078;9.194;2023-06-26T01:30:03;28.50;46.30
14901;DHT22;7542;49.078;9.194;2023-06-26T01:31:07;28.50;46.40
14901;DHT22;7542;49.078;9.194;2023-06-26T01:32:10;28.50;46.40
14901;DHT22;7542;49.078;9.194;2023-06-26T01:33:13;28.50;46.40
14901;DHT22;7542;49.078;9.194;2023-06-26T01:34:17;28.40;46.30
14901;DHT22;7542;49.078;9.194;2023-06-26T01:35:19;28.70;46.30
14901;DHT22;7542;49.078;9.194;2023-06-26T01:36:22;28.40;46.40
14901;DHT22;7542;49.078;9.194;2023-06-26T01:37:23;28.50;46.30
14901;DHT22;7542;49.078;9.194;2023-06-26T01:38:25;28.40;46.30
14901;DHT22;7542;49.078;9.194;2023-06-26T01:39:27;28.50;46.30
14901;DHT22;7542;49.078;9.194;2023-06-26T01:40:29;28.40;46.30
14901;DHT22;7542;49.078;9.194;2023-06-26T01:41:31;28.40;46.30
14901;DHT22;7542;49.078;9.194;2023-06-26T01:42:34;28.40;46.30
14901;DHT22;7542;49.078;9.194;2023-06-26T01:44:03;28.40;46.40
14901;DHT22;7542;49.078;9.194;2023-06-26T01:45:36;28.40;46.30
14901;DHT22;7542;49.078;9.194;2023-06-26T01:47:50;28.30;46.30
14901;DHT22;7542;49.078;9.194;2023-06-26T01:49:21;28.30;46.30
14901;DHT22;7542;49.078;9.194;2023-06-26T01:50:28;28.30;46.20
14901;DHT22;7542;49.078;9.194;2023-06-26T01:51:41;28.30;46.20
14901;DHT22;7542;49.078;9.194;2023-06-26T01:52:53;28.30;46.20
14901;DHT22;7542;49.078;9.194;2023-06-26T01:54:04;28.30;46.10
14901;DHT22;7542;49.078;9.194;2023-06-26T01:55:21;28.40;46.10
14901;DHT22;7542;49.078;9.194;2023-06-26T01:56:29;28.30;46.10
14901;DHT22;7542;49.078;9.194;2023-06-26T01:57:34;28.30;46.10
14901;DHT22;7542;49.078;9.194;2023-06-26T01:58:43;28.30;46.10
14901;DHT22;7542;49.078;9.194;2023-06-26T01:59:47;28.30;46.10
14901;DHT22;7542;49.078;9.194;2023-06-26T02:00:50;28.30;46.10
14901;DHT22;7542;49.078;9.194;2023-06-26T02:01:52;28.30;46.10
14901;DHT22;7542;49.078;9.194;2023-06-26T02:02:54;28.20;46.10
14901;DHT22;7542;49.078;9.194;2023-06-26T02:03:57;28.30;46.10
14901;DHT22;7542;49.078;9.194;2023-06-26T02:04:59;28.30;46.00
14901;DHT22;7542;49.078;9.194;2023-06-26T02:06:00;28.30;46.00
14901;DHT22;7542;49.078;9.194;2023-06-26T02:07:03;28.20;46.00
14901;DHT22;7542;49.078;9.194;2023-06-26T02:08:05;28.30;45.90
14901;DHT22;7542;49.078;9.194;2023-06-26T02:09:08;28.20;45.80
14901;DHT22;7542;49.078;9.194;2023-06-26T02:10:10;28.20;45.80
14901;DHT22;7542;49.078;9.194;2023-06-26T02:11:12;28.20;45.80
14901;DHT22;7542;49.078;9.194;2023-06-26T02:12:14;28.20;45.70
14901;DHT22;7542;49.078;9.194;2023-06-26T02:13:16;28.20;45.70
14901;DHT22;7542;49.078;9.194;2023-06-26T02:14:18;28.30;45.60
14901;DHT22;7542;49.078;9.194;2023-06-26T02:15:19;28.20;45.50
14901;DHT22;7542;49.078;9.194;2023-06-26T02:16:22;28.20;45.50
14901;DHT22;7542;49.078;9.194;2023-06-26T02:17:24;28.20;45.40
14901;DHT22;7542;49.078;9.194;2023-06-26T02:18:26;29.40;45.90
14901;DHT22;7542;49.078;9.194;2023-06-26T02:19:28;28.20;45.40
14901;DHT22;7542;49.078;9.194;2023-06-26T02:20:30;28.20;45.40
14901;DHT22;7542;49.078;9.194;2023-06-26T02:21:32;28.20;45.40
14901;DHT22;7542;49.078;9.194;2023-06-26T02:22:34;28.10;45.40
14901;DHT22;7542;49.078;9.194;2023-06-26T02:23:36;28.20;45.40
14901;DHT22;7542;49.078;9.194;2023-06-26T02:24:38;28.10;45.40
14901;DHT22;7542;49.078;9.194;2023-06-26T02:25:40;28.10;45.40
14901;DHT22;7542;49.078;9.194;2023-06-26T02:26:42;28.10;45.50
14901;DHT22;7542;49.078;9.194;2023-06-26T02:27:44;28.10;45.50
14901;DHT22;7542;49.078;9.194;2023-06-26T02:28:46;28.10;45.50
14901;DHT22;7542;49.078;9.194;2023-06-26T02:29:48;28.10;45.50
14901;DHT22;7542;49.078;9.194;2023-06-26T02:30:50;28.10;45.50
14901;DHT22;7542;49.078;9.194;2023-06-26T02:31:52;28.10;45.60
14901;DHT22;7542;49.078;9.194;2023-06-26T02:32:54;28.10;45.70
14901;DHT22;7542;49.078;9.194;2023-06-26T02:33:56;28.10;45.60
14901;DHT22;7542;49.078;9.194;2023-06-26T02:34:58;27.90;45.10
14901;DHT22;7542;49.078;9.194;2023-06-26T02:36:00;28.10;45.60
14901;DHT22;7542;49.078;9.194;2023-06-26T02:37:02;28.00;45.50
14901;DHT22;7542;49.078;9.194;2023-06-26T02:38:04;28.00;45.60
14901;DHT22;7542;49.078;9.194;2023-06-26T02:39:06;28.00;45.60
14901;DHT22;7542;49.078;9.194;2023-06-26T02:40:08;28.00;45.60
14901;DHT22;7542;49.078;9.194;2023-06-26T02:41:11;28.00;45.70
14901;DHT22;7542;49.078;9.194;2023-06-26T02:42:13;28.00;45.70
14901;DHT22;7542;49.078;9.194;2023-06-26T02:43:15;28.00;45.80
14901;DHT22;7542;49.078;9.194;2023-06-26T02:44:18;28.00;45.80
14901;DHT22;7542;49.078;9.194;2023-06-26T02:45:20;28.00;45.80
14901;DHT22;7542;49.078;9.194;2023-06-26T02:46:22;28.10;45.90
14901;DHT22;7542;49.078;9.194;2023-06-26T02:47:23;28.00;46.00
14901;DHT22;7542;49.078;9.194;2023-06-26T02:48:25;28.00;46.00
14901;DHT22;7542;49.078;9.194;2023-06-26T02:49:27;27.90;45.60
14901;DHT22;7542;49.078;9.194;2023-06-26T02:50:29;28.00;46.10
14901;DHT22;7542;49.078;9.194;2023-06-26T02:51:34;27.90;45.60
14901;DHT22;7542;49.078;9.194;2023-06-26T02:52:36;27.90;45.60
14901;DHT22;7542;49.078;9.194;2023-06-26T02:53:38;27.90;45.60
14901;DHT22;7542;49.078;9.194;2023-06-26T02:54:40;27.80;45.70
14901;DHT22;7542;49.078;9.194;2023-06-26T02:55:42;27.80;45.70
14901;DHT22;7542;49.078;9.194;2023-06-26T02:56:43;27.80;45.70
14901;DHT22;7542;49.078;9.194;2023-06-26T02:57:48;27.90;45.80
14901;DHT22;7542;49.078;9.194;2023-06-26T02:58:50;27.80;45.80
14901;DHT22;7542;49.078;9.194;2023-06-26T02:59:52;27.80;45.80
14901;DHT22;7542;49.078;9.194;2023-06-26T03:00:54;27.80;45.80
14901;DHT22;7542;49.078;9.194;2023-06-26T03:01:56;28.50;46.40
14901;DHT22;7542;49.078;9.194;2023-06-26T03:02:58;27.80;45.90
14901;DHT22;7542;49.078;9.194;2023-06-26T03:04:01;27.80;46.00
14901;DHT22;7542;49.078;9.194;2023-06-26T03:05:04;27.80;46.00
14901;DHT22;7542;49.078;9.194;2023-06-26T03:06:07;27.80;46.10
14901;DHT22;7542;49.078;9.194;2023-06-26T03:07:09;27.80;46.10
14901;DHT22;7542;49.078;9.194;2023-06-26T03:08:11;27.70;46.10
14901;DHT22;7542;49.078;9.194;2023-06-26T03:09:13;27.70;46.10
14901;DHT22;7542;49.078;9.194;2023-06-26T03:10:15;27.70;46.10
14901;DHT22;7542;49.078;9.194;2023-06-26T03:11:17;27.70;46.10
14901;DHT22;7542;49.078;9.194;2023-06-26T03:12:18;27.70;46.20
14901;DHT22;7542;49.078;9.194;2023-06-26T03:13:20;27.60;46.20
14901;DHT22;7542;49.078;9.194;2023-06-26T03:14:22;27.60;46.20
14901;DHT22;7542;49.078;9.194;2023-06-26T03:15:24;27.60;46.10
14901;DHT22;7542;49.078;9.194;2023-06-26T03:16:26;27.60;46.10
14901;DHT22;7542;49.078;9.194;2023-06-26T03:17:28;27.60;46.10
14901;DHT22;7542;49.078;9.194;2023-06-26T03:18:30;27.60;46.10
14901;DHT22;7542;49.078;9.194;2023-06-26T03:19:32;27.50;46.10
14901;DHT22;7542;49.078;9.194;2023-06-26T03:20:34;27.50;46.10
14901;DHT22;7542;49.078;9.194;2023-06-26T03:21:36;27.50;46.10
14901;DHT22;7542;49.078;9.194;2023-06-26T03:22:38;27.50;46.20
14901;DHT22;7542;49.078;9.194;2023-06-26T03:23:40;27.50;46.20
14901;DHT22;7542;49.078;9.194;2023-06-26T03:24:44;27.50;46.20
14901;DHT22;7542;49.078;9.194;2023-06-26T03:25:47;27.50;46.20
14901;DHT22;7542;49.078;9.194;2023-06-26T03:26:50;27.50;46.30
14901;DHT22;7542;49.078;9.194;2023-06-26T03:27:52;27.40;46.30
14901;DHT22;7542;49.078;9.194;2023-06-26T03:28:54;27.50;46.30
14901;DHT22;7542;49.078;9.194;2023-06-26T03:29:56;27.40;46.30
14901;DHT22;7542;49.078;9.194;2023-06-26T03:30:58;27.40;46.30
14901;DHT22;7542;49.078;9.194;2023-06-26T03:32:00;27.40;46.30
14901;DHT22;7542;49.078;9.194;2023-06-26T03:33:02;27.40;46.40
14901;DHT22;7542;49.078;9.194;2023-06-26T03:34:04;27.40;46.40
14901;DHT22;7542;49.078;9.194;2023-06-26T03:35:06;27.40;46.40
14901;DHT22;7542;49.078;9.194;2023-06-26T03:36:09;27.40;46.50
14901;DHT22;7542;49.078;9.194;2023-06-26T03:37:11;27.40;46.50
14901;DHT22;7542;49.078;9.194;2023-06-26T03:38:13;27.60;46.50
14901;DHT22;7542;49.078;9.194;2023-06-26T03:39:15;27.30;46.60
14901;DHT22;7542;49.078;9.194;2023-06-26T03:40:16;27.40;46.60
14901;DHT22;7542;49.078;9.194;2023-06-26T03:41:18;27.40;46.60
14901;DHT22;7542;49.078;9.194;2023-06-26T03:42:20;27.40;46.60
14901;DHT22;7542;49.078;9.194;2023-06-26T03:43:22;27.30;46.60
14901;DHT22;7542;49.078;9.194;2023-06-26T03:44:24;27.30;46.60
14901;DHT22;7542;49.078;9.194;2023-06-26T03:45:26;27.30;46.60
14901;DHT22;7542;49.078;9.194;2023-06-26T03:46:28;27.40;46.60
14901;DHT22;7542;49.078;9.194;2023-06-26T03:47:30;27.40;46.70
14901;DHT22;7542;49.078;9.194;2023-06-26T03:48:33;27.40;46.70
14901;DHT22;7542;49.078;9.194;2023-06-26T03:49:34;27.40;46.70
14901;DHT22;7542;49.078;9.194;2023-06-26T03:50:36;27.40;46.70
14901;DHT22;7542;49.078;9.194;2023-06-26T03:51:39;27.30;46.70
14901;DHT22;7542;49.078;9.194;2023-06-26T03:52:41;27.30;46.80
14901;DHT22;7542;49.078;9.194;2023-06-26T03:53:43;27.30;46.80
14901;DHT22;7542;49.078;9.194;2023-06-26T03:54:44;27.30;46.80
14901;DHT22;7542;49.078;9.194;2023-06-26T03:55:46;27.30;46.90
14901;DHT22;7542;49.078;9.194;2023-06-26T03:56:48;27.30;46.90
14901;DHT22;7542;49.078;9.194;2023-06-26T03:57:50;27.30;46.90
14901;DHT22;7542;49.078;9.194;2023-06-26T03:58:52;27.30;46.90
14901;DHT22;7542;49.078;9.194;2023-06-26T03:59:54;27.30;46.90
14901;DHT22;7542;49.078;9.194;2023-06-26T04:00:56;27.30;46.90
14901;DHT22;7542;49.078;9.194;2023-06-26T04:01:59;27.30;47.00
14901;DHT22;7542;49.078;9.194;2023-06-26T04:03:01;27.30;47.00
14901;DHT22;7542;49.078;9.194;2023-06-26T04:04:04;27.30;47.00
14901;DHT22;7542;49.078;9.194;2023-06-26T04:05:06;27.30;47.00
14901;DHT22;7542;49.078;9.194;2023-06-26T04:06:08;27.30;47.10
14901;DHT22;7542;49.078;9.194;2023-06-26T04:07:11;27.20;47.10
14901;DHT22;7542;49.078;9.194;2023-06-26T04:08:13;27.30;47.10
14901;DHT22;7542;49.078;9.194;2023-06-26T04:09:15;27.20;47.10
14901;DHT22;7542;49.078;9.194;2023-06-26T04:10:17;27.20;47.10
14901;DHT22;7542;49.078;9.194;2023-06-26T04:11:19;27.20;47.10
14901;DHT22;7542;49.078;9.194;2023-06-26T04:12:21;27.20;47.20
14901;DHT22;7542;49.078;9.194;2023-06-26T04:13:23;27.20;47.10
14901;DHT22;7542;49.078;9.194;2023-06-26T04:14:25;27.20;47.10
14901;DHT22;7542;49.078;9.194;2023-06-26T04:15:27;27.20;47.10
14901;DHT22;7542;49.078;9.194;2023-06-26T04:16:29;27.20;47.10
14901;DHT22;7542;49.078;9.194;2023-06-26T04:17:31;27.20;47.10
14901;DHT22;7542;49.078;9.194;2023-06-26T04:18:32;27.30;47.20
14901;DHT22;7542;49.078;9.194;2023-06-26T04:19:34;27.20;47.10
14901;DHT22;7542;49.078;9.194;2023-06-26T04:21:21;27.20;47.10
14901;DHT22;7542;49.078;9.194;2023-06-26T04:22:25;27.40;47.20
14901;DHT22;7542;49.078;9.194;2023-06-26T04:23:27;27.20;47.20
14901;DHT22;7542;49.078;9.194;2023-06-26T04:24:29;27.20;47.20
14901;DHT22;7542;49.078;9.194;2023-06-26T04:25:31;27.20;47.20
14901;DHT22;7542;49.078;9.194;2023-06-26T04:26:33;27.20;47.20
14901;DHT22;7542;49.078;9.194;2023-06-26T04:27:35;27.20;47.20
14901;DHT22;7542;49.078;9.194;2023-06-26T04:28:40;27.20;47.20
14901;DHT22;7542;49.078;9.194;2023-06-26T04:29:41;27.20;47.20
14901;DHT22;7542;49.078;9.194;2023-06-26T04:30:43;27.20;47.20
14901;DHT22;7542;49.078;9.194;2023-06-26T04:31:45;27.20;47.20
14901;DHT22;7542;49.078;9.194;2023-06-26T04:32:48;27.20;47.20
14901;DHT22;7542;49.078;9.194;2023-06-26T04:33:50;27.20;47.20
14901;DHT22;7542;49.078;9.194;2023-06-26T04:34:52;27.20;47.30
14901;DHT22;7542;49.078;9.194;2023-06-26T04:35:54;27.20;47.20
14901;DHT22;7542;49.078;9.194;2023-06-26T04:36:56;27.10;47.30
14901;DHT22;7542;49.078;9.194;2023-06-26T04:37:58;27.20;47.30
14901;DHT22;7542;49.078;9.194;2023-06-26T04:39:00;27.20;47.30
14901;DHT22;7542;49.078;9.194;2023-06-26T04:40:02;27.20;47.30
14901;DHT22;7542;49.078;9.194;2023-06-26T04:41:05;27.20;47.30
14901;DHT22;7542;49.078;9.194;2023-06-26T04:42:07;27.20;47.40
14901;DHT22;7542;49.078;9.194;2023-06-26T04:43:10;27.20;47.30
14901;DHT22;7542;49.078;9.194;2023-06-26T04:44:12;27.20;47.40
14901;DHT22;7542;49.078;9.194;2023-06-26T04:45:14;27.20;47.30
14901;DHT22;7542;49.078;9.194;2023-06-26T04:46:16;27.20;47.30
14901;DHT22;7542;49.078;9.194;2023-06-26T04:47:18;27.20;47.40
14901;DHT22;7542;49.078;9.194;2023-06-26T04:48:20;27.20;47.40
14901;DHT22;7542;49.078;9.194;2023-06-26T04:49:23;27.10;47.40
14901;DHT22;7542;49.078;9.194;2023-06-26T04:50:24;27.20;47.40
14901;DHT22;7542;49.078;9.194;2023-06-26T04:51:26;27.20;47.50
14901;DHT22;7542;49.078;9.194;2023-06-26T04:52:30;27.20;47.60
14901;DHT22;7542;49.078;9.194;2023-06-26T04:53:32;27.20;47.60
14901;DHT22;7542;49.078;9.194;2023-06-26T04:54:34;27.20;47.60
14901;DHT22;7542;49.078;9.194;2023-06-26T04:55:36;27.20;47.70
14901;DHT22;7542;49.078;9.194;2023-06-26T04:56:40;27.20;47.70
14901;DHT22;7542;49.078;9.194;2023-06-26T04:57:42;27.20;47.70
14901;DHT22;7542;49.078;9.194;2023-06-26T04:58:44;27.20;47.70
14901;DHT22;7542;49.078;9.194;2023-06-26T04:59:46;27.30;47.80
14901;DHT22;7542;49.078;9.194;2023-06-26T05:00:47;27.20;47.90
14901;DHT22;7542;49.078;9.194;2023-06-26T05:01:50;27.20;47.90
14901;DHT22;7542;49.078;9.194;2023-06-26T05:02:52;27.10;47.90
14901;DHT22;7542;49.078;9.194;2023-06-26T05:04:02;27.20;47.90
14901;DHT22;7542;49.078;9.194;2023-06-26T05:05:05;27.20;48.00
14901;DHT22;7542;49.078;9.194;2023-06-26T05:06:07;27.00;48.10
14901;DHT22;7542;49.078;9.194;2023-06-26T05:07:10;27.20;48.20
14901;DHT22;7542;49.078;9.194;2023-06-26T05:08:23;27.20;48.20
14901;DHT22;7542;49.078;9.194;2023-06-26T05:09:27;27.20;48.30
14901;DHT22;7542;49.078;9.194;2023-06-26T05:10:29;27.30;48.30
14901;DHT22;7542;49.078;9.194;2023-06-26T05:11:31;27.20;48.40
14901;DHT22;7542;49.078;9.194;2023-06-26T05:12:33;27.20;48.40
14901;DHT22;7542;49.078;9.194;2023-06-26T05:13:35;27.20;48.40
14901;DHT22;7542;49.078;9.194;2023-06-26T05:14:37;27.20;48.30
14901;DHT22;7542;49.078;9.194;2023-06-26T05:15:39;27.30;48.30
14901;DHT22;7542;49.078;9.194;2023-06-26T05:16:41;27.20;48.30
14901;DHT22;7542;49.078;9.194;2023-06-26T05:17:43;27.20;48.20
14901;DHT22;7542;49.078;9.194;2023-06-26T05:18:45;27.20;48.30
14901;DHT22;7542;49.078;9.194;2023-06-26T05:19:47;27.20;48.30
14901;DHT22;7542;49.078;9.194;2023-06-26T05:20:49;27.20;48.40
14901;DHT22;7542;49.078;9.194;2023-06-26T05:21:52;27.20;48.40
14901;DHT22;7542;49.078;9.194;2023-06-26T05:22:55;27.20;48.40
14901;DHT22;7542;49.078;9.194;2023-06-26T05:23:57;27.20;48.40
14901;DHT22;7542;49.078;9.194;2023-06-26T05:25:00;27.20;48.50
14901;DHT22;7542;49.078;9.194;2023-06-26T05:26:06;27.20;48.70
14901;DHT22;7542;49.078;9.194;2023-06-26T05:27:08;27.30;48.70
14901;DHT22;7542;49.078;9.194;2023-06-26T05:28:11;27.30;48.70
14901;DHT22;7542;49.078;9.194;2023-06-26T05:29:14;27.30;48.70
14901;DHT22;7542;49.078;9.194;2023-06-26T05:30:17;27.30;48.70
14901;DHT22;7542;49.078;9.194;2023-06-26T05:31:19;27.40;48.70
14901;DHT22;7542;49.078;9.194;2023-06-26T05:32:22;27.30;48.70
14901;DHT22;7542;49.078;9.194;2023-06-26T05:33:25;27.40;48.70
14901;DHT22;7542;49.078;9.194;2023-06-26T05:34:28;27.40;48.70
14901;DHT22;7542;49.078;9.194;2023-06-26T05:35:30;27.40;48.70
14901;DHT22;7542;49.078;9.194;2023-06-26T05:36:34;27.40;48.60
14901;DHT22;7542;49.078;9.194;2023-06-26T05:37:37;27.50;48.60
14901;DHT22;7542;49.078;9.194;2023-06-26T05:38:39;27.40;48.60
14901;DHT22;7542;49.078;9.194;2023-06-26T05:39:42;27.40;48.60
14901;DHT22;7542;49.078;9.194;2023-06-26T05:40:45;27.40;48.70
14901;DHT22;7542;49.078;9.194;2023-06-26T05:41:47;27.40;48.90
14901;DHT22;7542;49.078;9.194;2023-06-26T05:42:50;27.50;48.90
14901;DHT22;7542;49.078;9.194;2023-06-26T05:43:52;27.60;49.00
14901;DHT22;7542;49.078;9.194;2023-06-26T05:44:56;27.50;49.00
14901;DHT22;7542;49.078;9.194;2023-06-26T05:45:58;27.70;49.10
14901;DHT22;7542;49.078;9.194;2023-06-26T05:47:00;27.50;49.10
14901;DHT22;7542;49.078;9.194;2023-06-26T05:48:02;27.50;49.10
14901;DHT22;7542;49.078;9.194;2023-06-26T05:49:04;27.40;49.10
14901;DHT22;7542;49.078;9.194;2023-06-26T05:50:08;27.50;49.10
14901;DHT22;7542;49.078;9.194;2023-06-26T05:51:11;27.50;49.20
14901;DHT22;7542;49.078;9.194;2023-06-26T05:52:14;27.50;49.20
14901;DHT22;7542;49.078;9.194;2023-06-26T05:53:18;27.50;49.20
14901;DHT22;7542;49.078;9.194;2023-06-26T05:54:22;27.50;49.20
14901;DHT22;7542;49.078;9.194;2023-06-26T05:55:25;27.50;49.20
14901;DHT22;7542;49.078;9.194;2023-06-26T05:56:28;27.50;49.30
14901;DHT22;7542;49.078;9.194;2023-06-26T05:57:30;27.60;49.30
14901;DHT22;7542;49.078;9.194;2023-06-26T05:58:32;27.60;49.40
14901;DHT22;7542;49.078;9.194;2023-06-26T05:59:37;27.60;49.40
14901;DHT22;7542;49.078;9.194;2023-06-26T06:00:42;27.60;49.40
14901;DHT22;7542;49.078;9.194;2023-06-26T06:01:44;27.60;49.40
14901;DHT22;7542;49.078;9.194;2023-06-26T06:02:46;27.60;49.40
14901;DHT22;7542;49.078;9.194;2023-06-26T06:03:48;27.70;49.40
14901;DHT22;7542;49.078;9.194;2023-06-26T06:04:51;27.70;49.40
14901;DHT22;7542;49.078;9.194;2023-06-26T06:05:52;27.70;49.40
14901;DHT22;7542;49.078;9.194;2023-06-26T06:06:54;27.80;49.40
14901;DHT22;7542;49.078;9.194;2023-06-26T06:07:56;27.80;49.40
14901;DHT22;7542;49.078;9.194;2023-06-26T06:08:58;27.80;49.30
14901;DHT22;7542;49.078;9.194;2023-06-26T06:10:02;27.60;49.30
14901;DHT22;7542;49.078;9.194;2023-06-26T06:11:05;27.80;49.30
14901;DHT22;7542;49.078;9.194;2023-06-26T06:12:07;28.90;49.80
14901;DHT22;7542;49.078;9.194;2023-06-26T06:13:09;27.80;49.30
14901;DHT22;7542;49.078;9.194;2023-06-26T06:14:11;27.80;49.30
14901;DHT22;7542;49.078;9.194;2023-06-26T06:15:13;27.80;49.20
14901;DHT22;7542;49.078;9.194;2023-06-26T06:16:15;27.80;49.30
14901;DHT22;7542;49.078;9.194;2023-06-26T06:17:17;27.90;49.20
14901;DHT22;7542;49.078;9.194;2023-06-26T06:18:19;27.90;49.10
14901;DHT22;7542;49.078;9.194;2023-06-26T06:19:21;27.90;49.10
14901;DHT22;7542;49.078;9.194;2023-06-26T06:20:24;27.90;49.10
14901;DHT22;7542;49.078;9.194;2023-06-26T06:21:26;27.90;49.20
14901;DHT22;7542;49.078;9.194;2023-06-26T06:22:28;27.90;49.20
14901;DHT22;7542;49.078;9.194;2023-06-26T06:23:30;27.90;49.20
14901;DHT22;7542;49.078;9.194;2023-06-26T06:24:32;28.00;49.70
14901;DHT22;7542;49.078;9.194;2023-06-26T06:25:33;28.00;49.70
14901;DHT22;7542;49.078;9.194;2023-06-26T06:26:36;28.00;49.60
14901;DHT22;7542;49.078;9.194;2023-06-26T06:27:37;27.90;49.20
14901;DHT22;7542;49.078;9.194;2023-06-26T06:28:40;28.00;49.70
14901;DHT22;7542;49.078;9.194;2023-06-26T06:29:42;28.00;49.60
14901;DHT22;7542;49.078;9.194;2023-06-26T06:30:43;28.00;49.60
14901;DHT22;7542;49.078;9.194;2023-06-26T06:31:47;28.00;49.60
14901;DHT22;7542;49.078;9.194;2023-06-26T06:32:49;28.00;49.60
14901;DHT22;7542;49.078;9.194;2023-06-26T06:33:54;28.00;49.50
14901;DHT22;7542;49.078;9.194;2023-06-26T06:34:56;28.00;49.40
14901;DHT22;7542;49.078;9.194;2023-06-26T06:35:59;28.00;49.40
14901;DHT22;7542;49.078;9.194;2023-06-26T06:37:01;28.00;49.30
14901;DHT22;7542;49.078;9.194;2023-06-26T06:38:04;28.00;49.10
14901;DHT22;7542;49.078;9.194;2023-06-26T06:39:06;28.00;49.10
14901;DHT22;7542;49.078;9.194;2023-06-26T06:40:09;28.00;49.00
14901;DHT22;7542;49.078;9.194;2023-06-26T06:41:12;28.20;48.90
14901;DHT22;7542;49.078;9.194;2023-06-26T06:42:15;28.10;48.90
14901;DHT22;7542;49.078;9.194;2023-06-26T06:43:17;28.10;48.90
14901;DHT22;7542;49.078;9.194;2023-06-26T06:44:19;28.30;48.80
14901;DHT22;7542;49.078;9.194;2023-06-26T06:45:20;28.30;48.80
14901;DHT22;7542;49.078;9.194;2023-06-26T06:46:22;28.20;48.70
14901;DHT22;7542;49.078;9.194;2023-06-26T06:47:24;28.30;48.70
14901;DHT22;7542;49.078;9.194;2023-06-26T06:48:26;28.20;48.60
14901;DHT22;7542;49.078;9.194;2023-06-26T06:49:28;28.30;48.60